Time;durP1;ratioP1;P1;durP2;ratioP2;P2;SDS_P1;SDS_P2;PMS_P1;PMS_P2;Temp;Humidity;BMP_temperature;BMP_pressure;BME280_temperature;BME280_humidity;BME280_pressure;Samples;Min_cycle;Max_cycle;Signal;HPM_P1;HPM_P2
2023/09/16 00:01:12;;;;;;;0.00;0.00;;;20.70;89.40;;;;;;4947251;28;20031;-76
2023/09/16 00:03:38;;;;;;;0.00;0.00;;;20.50;89.80;;;;;;4947534;29;20035;-77
2023/09/16 00:06:04;;;;;;;0.00;0.00;;;20.50;90.00;;;;;;4948642;29;20031;-76
2023/09/16 00:08:32;;;;;;;0.00;0.00;;;20.40;90.10;;;;;;4969226;28;20074;-76
2023/09/16 00:10:58;;;;;;;0.00;0.00;;;20.30;90.60;;;;;;4958665;28;20670;-76
2023/09/16 00:13:24;;;;;;;0.00;0.00;;;20.30;90.80;;;;;;4941412;29;20035;-76
2023/09/16 00:15:49;;;;;;;0.00;0.00;;;20.30;90.80;;;;;;4939247;29;20034;-77
2023/09/16 00:18:18;;;;;;;0.00;0.00;;;20.50;90.80;;;;;;4942639;29;20111;-76
2023/09/16 00:20:45;;;;;;;0.00;0.00;;;20.30;90.80;;;;;;4940535;29;20024;-76
2023/09/16 00:23:10;;;;;;;0.00;0.00;;;20.20;91.40;;;;;;4943761;29;20074;-76
2023/09/16 00:25:36;;;;;;;0.00;0.00;;;20.30;91.40;;;;;;4942570;29;20119;-76
2023/09/16 00:28:06;;;;;;;0.00;0.00;;;20.20;91.50;;;;;;4948665;28;20039;-76
2023/09/16 00:30:32;;;;;;;0.00;0.00;;;20.10;92.00;;;;;;4944693;29;20051;-77
2023/09/16 00:32:58;;;;;;;0.00;0.00;;;20.10;92.30;;;;;;4949463;28;20035;-76
2023/09/16 00:35:23;;;;;;;0.00;0.00;;;20.00;92.90;;;;;;4948936;29;20037;-76
2023/09/16 00:37:49;;;;;;;0.00;0.00;;;19.90;93.40;;;;;;4950277;29;20063;-76
2023/09/16 00:40:15;;;;;;;0.20;0.20;;;19.70;94.30;;;;;;4950571;28;20027;-76
2023/09/16 00:42:40;;;;;;;0.00;0.00;;;19.70;95.20;;;;;;4950142;29;20023;-76
2023/09/16 00:45:10;;;;;;;0.00;0.00;;;19.60;96.00;;;;;;4965099;28;20086;-76
2023/09/16 00:47:42;;;;;;;0.00;0.00;;;19.60;96.50;;;;;;4951373;28;20035;-76
2023/09/16 00:50:17;;;;;;;0.00;0.00;;;19.70;96.80;;;;;;4953153;28;20567;-76
2023/09/16 00:52:54;;;;;;;0.15;0.15;;;19.70;97.20;;;;;;4949733;28;20027;-76
2023/09/16 00:55:21;;;;;;;0.00;0.00;;;19.70;97.70;;;;;;4950402;29;20023;-76
2023/09/16 00:57:50;;;;;;;0.00;0.00;;;19.70;98.00;;;;;;4963822;28;20111;-77
2023/09/16 01:00:16;;;;;;;0.00;0.00;;;19.70;98.20;;;;;;4949915;28;20131;-77
2023/09/16 01:02:44;;;;;;;0.00;0.00;;;19.60;98.50;;;;;;4942818;29;20035;-77
2023/09/16 01:05:15;;;;;;;0.00;0.00;;;19.50;98.70;;;;;;4949518;29;20529;-77
2023/09/16 01:07:41;;;;;;;0.00;0.00;;;19.60;98.40;;;;;;4963471;28;20039;-77
2023/09/16 01:10:10;;;;;;;0.00;0.00;;;19.70;98.00;;;;;;4935451;29;20115;-76
2023/09/16 01:12:37;;;;;;;0.00;0.00;;;19.80;97.40;;;;;;4947125;29;20052;-76
2023/09/16 01:15:05;;;;;;;0.00;0.00;;;19.90;96.80;;;;;;4940956;29;20042;-76
2023/09/16 01:17:39;;;;;;;0.00;0.00;;;19.90;96.60;;;;;;4937036;29;20073;-76
2023/09/16 01:20:15;;;;;;;0.00;0.00;;;19.90;96.30;;;;;;4934524;29;20072;-76
2023/09/16 01:22:45;;;;;;;0.00;0.00;;;20.00;96.00;;;;;;4943763;28;20082;-76
2023/09/16 01:25:13;;;;;;;0.00;0.00;;;20.10;95.80;;;;;;4945333;29;20090;-76
2023/09/16 01:27:38;;;;;;;0.00;0.00;;;20.00;95.90;;;;;;4947420;28;20054;-76
2023/09/16 01:30:05;;;;;;;0.03;0.03;;;19.90;96.20;;;;;;4949262;28;20027;-76
2023/09/16 01:32:55;;;;;;;0.00;0.00;;;19.90;96.60;;;;;;4938400;29;20090;-76
2023/09/16 01:35:23;;;;;;;0.00;0.00;;;19.90;96.90;;;;;;4952870;28;20130;-76
2023/09/16 01:37:51;;;;;;;0.00;0.00;;;19.90;96.80;;;;;;4943247;29;20027;-76
2023/09/16 01:40:19;;;;;;;0.00;0.00;;;19.90;97.50;;;;;;4940897;29;20035;-76
2023/09/16 01:42:45;;;;;;;0.28;0.28;;;19.90;97.20;;;;;;4943462;29;20031;-75
2023/09/16 01:45:11;;;;;;;0.00;0.00;;;19.90;97.40;;;;;;4943003;29;20507;-75
2023/09/16 01:47:37;;;;;;;0.00;0.00;;;19.80;98.00;;;;;;4943210;29;20073;-75
2023/09/16 01:50:04;;;;;;;0.00;0.00;;;19.80;98.30;;;;;;4942475;28;20040;-75
2023/09/16 01:52:30;;;;;;;0.00;0.00;;;19.80;98.80;;;;;;4964491;28;20877;-75
2023/09/16 01:54:55;;;;;;;0.10;0.10;;;19.80;98.60;;;;;;4948728;28;20031;-75
2023/09/16 01:57:21;;;;;;;0.00;0.00;;;19.80;98.50;;;;;;4942221;28;20039;-76
2023/09/16 01:59:47;;;;;;;2.73;2.57;;;19.90;98.10;;;;;;4947699;28;20027;-75
2023/09/16 02:02:12;;;;;;;0.00;0.00;;;19.90;98.00;;;;;;4944443;29;20035;-76
2023/09/16 02:04:43;;;;;;;0.00;0.00;;;19.90;98.60;;;;;;4949287;28;20047;-76
2023/09/16 02:07:10;;;;;;;0.00;0.00;;;19.80;97.90;;;;;;4943280;28;20565;-76
2023/09/16 02:09:35;;;;;;;0.00;0.00;;;19.90;98.60;;;;;;4950885;28;20126;-76
2023/09/16 02:12:01;;;;;;;0.00;0.00;;;19.70;98.10;;;;;;4945676;28;20118;-76
2023/09/16 02:14:27;;;;;;;0.00;0.00;;;19.70;97.90;;;;;;4937444;29;20558;-76
2023/09/16 02:16:52;;;;;;;0.00;0.00;;;19.70;97.90;;;;;;4947358;28;20590;-76
2023/09/16 02:19:18;;;;;;;0.00;0.00;;;19.60;97.90;;;;;;4949668;29;20046;-76
2023/09/16 02:21:43;;;;;;;0.00;0.00;;;19.60;98.70;;;;;;4949351;28;20138;-76
2023/09/16 02:24:09;;;;;;;0.00;0.00;;;19.50;98.20;;;;;;4941596;28;20725;-76
2023/09/16 02:26:35;;;;;;;0.00;0.00;;;19.60;97.70;;;;;;4947212;29;20489;-77
2023/09/16 02:29:00;;;;;;;0.00;0.00;;;19.60;98.30;;;;;;4942196;28;20594;-76
2023/09/16 02:31:26;;;;;;;0.00;0.00;;;19.60;98.00;;;;;;4938516;29;20108;-76
2023/09/16 02:33:56;;;;;;;0.00;0.00;;;19.60;97.90;;;;;;4947987;28;20110;-77
2023/09/16 02:36:22;;;;;;;0.00;0.00;;;19.80;97.60;;;;;;4948316;28;20042;-75
2023/09/16 02:38:48;;;;;;;0.00;0.00;;;19.80;97.40;;;;;;4941062;29;20020;-76
2023/09/16 02:41:17;;;;;;;0.00;0.00;;;19.70;97.30;;;;;;4944572;28;20074;-75
2023/09/16 02:43:43;;;;;;;0.00;0.00;;;19.70;97.70;;;;;;4944872;29;20027;-76
2023/09/16 02:46:09;;;;;;;0.00;0.00;;;19.50;98.00;;;;;;4946212;29;20106;-76
2023/09/16 02:48:35;;;;;;;0.00;0.00;;;19.50;98.00;;;;;;4944214;29;20138;-77
2023/09/16 02:51:02;;;;;;;0.00;0.00;;;19.50;98.00;;;;;;4942270;28;20043;-76
2023/09/16 02:53:29;;;;;;;0.00;0.00;;;19.40;98.40;;;;;;4946681;29;20035;-76
2023/09/16 02:55:55;;;;;;;0.00;0.00;;;19.30;99.00;;;;;;4960408;28;20031;-76
2023/09/16 02:58:21;;;;;;;0.00;0.00;;;19.20;99.90;;;;;;4936879;29;20043;-76
2023/09/16 03:00:47;;;;;;;0.00;0.00;;;19.10;99.90;;;;;;4950896;29;20503;-76
2023/09/16 03:03:13;;;;;;;0.00;0.00;;;19.20;99.90;;;;;;4948978;29;20031;-76
2023/09/16 03:05:45;;;;;;;0.00;0.00;;;19.20;99.90;;;;;;4950209;29;20036;-76
2023/09/16 03:08:14;;;;;;;0.28;0.28;;;19.10;99.90;;;;;;4948771;28;20497;-76
2023/09/16 03:10:41;;;;;;;0.00;0.00;;;19.10;99.90;;;;;;4940224;28;20381;-76
2023/09/16 03:13:07;;;;;;;0.00;0.00;;;19.10;99.90;;;;;;4953866;28;20091;-77
2023/09/16 03:15:36;;;;;;;0.00;0.00;;;19.10;99.90;;;;;;4946967;28;20035;-76
2023/09/16 03:18:02;;;;;;;0.00;0.00;;;19.00;99.90;;;;;;4936160;29;20515;-76
2023/09/16 03:20:27;;;;;;;0.57;0.57;;;19.10;99.90;;;;;;4953662;28;20081;-77
2023/09/16 03:22:53;;;;;;;0.00;0.00;;;19.20;99.90;;;;;;4943641;29;20091;-77
2023/09/16 03:25:19;;;;;;;0.00;0.00;;;19.20;99.90;;;;;;4967500;28;20410;-76
2023/09/16 03:27:44;;;;;;;0.00;0.00;;;19.20;99.90;;;;;;4954398;28;20031;-76
2023/09/16 03:30:10;;;;;;;0.00;0.00;;;19.20;99.90;;;;;;4946157;29;20039;-76
2023/09/16 03:32:39;;;;;;;0.00;0.00;;;19.10;99.90;;;;;;4945064;29;20047;-76
2023/09/16 03:35:05;;;;;;;0.00;0.00;;;19.10;99.90;;;;;;4947276;29;20114;-76
2023/09/16 03:37:30;;;;;;;0.00;0.00;;;19.00;99.90;;;;;;4948905;28;20605;-75
2023/09/16 03:39:56;;;;;;;0.00;0.00;;;19.00;99.90;;;;;;4937551;29;20083;-76
2023/09/16 03:42:22;;;;;;;0.00;0.00;;;19.00;99.90;;;;;;4938272;29;20024;-76
2023/09/16 03:44:47;;;;;;;0.00;0.00;;;18.90;99.90;;;;;;4936349;29;20031;-77
2023/09/16 03:47:13;;;;;;;0.00;0.00;;;18.90;99.90;;;;;;4940103;29;20019;-77
2023/09/16 03:49:39;;;;;;;0.00;0.00;;;18.90;99.90;;;;;;4935208;29;20144;-76
2023/09/16 03:52:05;;;;;;;0.00;0.00;;;18.90;99.90;;;;;;4938972;29;20027;-76
2023/09/16 03:54:31;;;;;;;0.00;0.00;;;19.00;99.90;;;;;;4934559;29;20035;-76
2023/09/16 03:56:56;;;;;;;0.00;0.00;;;19.00;99.90;;;;;;4941701;29;20039;-76
2023/09/16 03:59:22;;;;;;;0.00;0.00;;;19.00;99.90;;;;;;4943315;29;20031;-77
2023/09/16 04:01:48;;;;;;;0.10;0.10;;;19.00;99.90;;;;;;4939716;29;20027;-77
2023/09/16 04:04:13;;;;;;;0.00;0.00;;;18.90;99.90;;;;;;4934587;29;20199;-77
2023/09/16 04:06:39;;;;;;;0.00;0.00;;;18.90;99.90;;;;;;4939282;28;20062;-77
2023/09/16 04:09:05;;;;;;;0.00;0.00;;;18.80;99.90;;;;;;4955526;28;20032;-76
2023/09/16 04:11:31;;;;;;;0.00;0.00;;;18.80;99.90;;;;;;4943451;29;20042;-76
2023/09/16 04:13:56;;;;;;;0.00;0.00;;;18.90;99.90;;;;;;4942725;29;20031;-76
2023/09/16 04:16:22;;;;;;;0.00;0.00;;;18.90;99.90;;;;;;4941740;28;20027;-75
2023/09/16 04:18:48;;;;;;;0.00;0.00;;;18.90;99.90;;;;;;4948692;29;20039;-76
2023/09/16 04:21:14;;;;;;;0.00;0.00;;;19.00;99.90;;;;;;4947661;29;20374;-75
2023/09/16 04:23:39;;;;;;;0.00;0.00;;;19.00;99.90;;;;;;4944732;28;20049;-76
2023/09/16 04:26:06;;;;;;;0.00;0.00;;;18.90;99.90;;;;;;4937883;28;20027;-75
2023/09/16 04:28:31;;;;;;;0.00;0.00;;;19.00;99.90;;;;;;4949738;28;20042;-76
2023/09/16 04:30:58;;;;;;;0.00;0.00;;;19.00;99.90;;;;;;4948571;29;20039;-75
2023/09/16 04:33:24;;;;;;;0.00;0.00;;;19.00;99.90;;;;;;4943780;29;20038;-76
2023/09/16 04:35:51;;;;;;;0.00;0.00;;;19.00;99.90;;;;;;4943763;29;20043;-76
2023/09/16 04:38:18;;;;;;;0.00;0.00;;;19.00;99.90;;;;;;4945364;28;20118;-75
2023/09/16 04:40:44;;;;;;;0.00;0.00;;;19.00;99.90;;;;;;4946726;29;20939;-76
2023/09/16 04:43:13;;;;;;;0.00;0.00;;;19.00;99.90;;;;;;4941238;29;20062;-76
2023/09/16 04:45:43;;;;;;;0.00;0.00;;;19.00;99.90;;;;;;4945303;29;20570;-76
2023/09/16 04:48:10;;;;;;;0.00;0.00;;;19.00;99.90;;;;;;4946378;28;20027;-76
2023/09/16 04:50:36;;;;;;;0.03;0.03;;;19.00;99.90;;;;;;4947550;29;20035;-77
2023/09/16 04:53:02;;;;;;;0.00;0.00;;;19.00;99.90;;;;;;4959845;28;20530;-76
2023/09/16 04:55:28;;;;;;;;;;;19.10;99.90;;;;;;4948465;28;20041;-76
2023/09/16 04:57:54;;;;;;;0.00;0.00;;;19.10;99.90;;;;;;4948276;28;19973;-77
2023/09/16 05:00:21;;;;;;;0.00;0.00;;;19.00;99.90;;;;;;4947133;29;20045;-77
2023/09/16 05:02:50;;;;;;;0.00;0.00;;;19.00;99.90;;;;;;4946984;29;20578;-76
2023/09/16 05:05:16;;;;;;;0.00;0.00;;;19.00;99.90;;;;;;4937953;28;20127;-76
2023/09/16 05:07:41;;;;;;;0.00;0.00;;;18.90;99.90;;;;;;4945398;28;20133;-76
2023/09/16 05:10:08;;;;;;;0.00;0.00;;;19.00;99.90;;;;;;4948766;28;20082;-75
2023/09/16 05:12:33;;;;;;;0.00;0.00;;;18.90;99.90;;;;;;4947289;29;20042;-77
2023/09/16 05:15:00;;;;;;;0.00;0.00;;;19.00;99.90;;;;;;4948082;28;20047;-76
2023/09/16 05:17:26;;;;;;;0.00;0.00;;;18.90;99.90;;;;;;4946332;28;20027;-76
2023/09/16 05:19:52;;;;;;;0.00;0.00;;;18.90;99.90;;;;;;4945776;29;20403;-75
2023/09/16 05:22:17;;;;;;;0.00;0.00;;;18.80;99.90;;;;;;4940602;28;20149;-75
2023/09/16 05:24:43;;;;;;;0.00;0.00;;;18.70;99.90;;;;;;4943914;28;20139;-75
2023/09/16 05:27:09;;;;;;;0.00;0.00;;;18.70;99.90;;;;;;4947977;29;20114;-76
2023/09/16 05:29:34;;;;;;;0.00;0.00;;;18.70;99.90;;;;;;4950022;28;20110;-76
2023/09/16 05:32:00;;;;;;;0.00;0.00;;;18.70;99.90;;;;;;4943752;29;20027;-76
2023/09/16 05:34:26;;;;;;;0.00;0.00;;;18.60;99.90;;;;;;4941327;29;20036;-75
2023/09/16 05:36:51;;;;;;;0.00;0.00;;;18.60;99.90;;;;;;4948091;29;20038;-75
2023/09/16 05:39:17;;;;;;;0.00;0.00;;;18.60;99.90;;;;;;4945205;28;20079;-77
2023/09/16 05:41:43;;;;;;;0.00;0.00;;;18.60;99.90;;;;;;4944648;29;20058;-76
2023/09/16 05:44:09;;;;;;;0.00;0.00;;;18.60;99.90;;;;;;4942681;29;20031;-76
2023/09/16 05:46:35;;;;;;;0.00;0.00;;;18.60;99.90;;;;;;4946238;29;20275;-76
2023/09/16 05:49:06;;;;;;;0.00;0.00;;;18.60;99.90;;;;;;4947609;29;20035;-78
2023/09/16 05:51:34;;;;;;;0.00;0.00;;;18.60;99.90;;;;;;4947686;29;20051;-77
2023/09/16 05:54:00;;;;;;;0.65;0.65;;;18.70;99.90;;;;;;4947880;29;20039;-77
2023/09/16 05:56:26;;;;;;;0.00;0.00;;;18.80;99.90;;;;;;4964192;28;20534;-78
2023/09/16 05:58:51;;;;;;;0.00;0.00;;;18.90;99.90;;;;;;4948472;29;20023;-77
2023/09/16 06:01:17;;;;;;;0.00;0.00;;;19.80;99.90;;;;;;4941754;29;20642;-78
2023/09/16 06:03:43;;;;;;;0.00;0.00;;;20.50;99.60;;;;;;4963424;28;20058;-77
2023/09/16 06:06:08;;;;;;;0.00;0.00;;;21.20;97.80;;;;;;4948121;29;20039;-76
2023/09/16 06:08:34;;;;;;;0.00;0.00;;;21.60;96.40;;;;;;4944533;28;20039;-77
2023/09/16 06:11:00;;;;;;;0.00;0.00;;;22.10;95.50;;;;;;4948643;29;20035;-75
2023/09/16 06:13:26;;;;;;;0.00;0.00;;;22.50;94.10;;;;;;4938236;29;20579;-77
2023/09/16 06:15:52;;;;;;;0.00;0.00;;;22.80;93.10;;;;;;4944602;28;20035;-76
2023/09/16 06:18:18;;;;;;;0.00;0.00;;;23.00;92.70;;;;;;4949039;29;20041;-78
2023/09/16 06:20:44;;;;;;;0.00;0.00;;;23.20;92.20;;;;;;4944713;29;20423;-77
2023/09/16 06:23:09;;;;;;;0.00;0.00;;;23.40;92.00;;;;;;4943976;29;20098;-77
2023/09/16 06:25:35;;;;;;;0.00;0.00;;;23.50;91.10;;;;;;4942745;28;20546;-79
2023/09/16 06:28:03;;;;;;;0.00;0.00;;;23.70;90.90;;;;;;4948870;28;20035;-78
2023/09/16 06:30:28;;;;;;;0.00;0.00;;;23.90;90.50;;;;;;4942874;28;20023;-78
2023/09/16 06:32:54;;;;;;;0.00;0.00;;;24.40;89.50;;;;;;4940448;29;20470;-81
2023/09/16 06:35:20;;;;;;;0.00;0.00;;;24.60;88.30;;;;;;4935439;29;20024;-79
2023/09/16 06:37:46;;;;;;;0.00;0.00;;;24.80;87.80;;;;;;4944444;28;20368;-79
2023/09/16 06:40:12;;;;;;;0.00;0.00;;;23.90;89.50;;;;;;4946469;29;20039;-80
2023/09/16 06:42:37;;;;;;;0.00;0.00;;;24.70;87.40;;;;;;4947051;29;20309;-78
2023/09/16 06:45:03;;;;;;;0.00;0.00;;;25.20;86.00;;;;;;4944613;29;20043;-82
2023/09/16 06:47:29;;;;;;;0.00;0.00;;;25.70;84.50;;;;;;4945748;29;20122;-82
2023/09/16 06:49:56;;;;;;;0.00;0.00;;;26.30;83.30;;;;;;4942594;28;20051;-84
2023/09/16 06:52:22;;;;;;;0.00;0.00;;;24.40;85.20;;;;;;4950148;29;20426;-81
2023/09/16 06:54:48;;;;;;;;;;;22.90;91.10;;;;;;4950588;28;20035;-84
2023/09/16 06:57:14;;;;;;;;;;;22.50;92.50;;;;;;4946608;28;20392;-87
2023/09/16 06:59:40;;;;;;;0.00;0.00;;;23.30;91.50;;;;;;4950044;28;19918;-84
2023/09/16 07:02:05;;;;;;;0.00;0.00;;;25.20;87.70;;;;;;4950670;28;20110;-82
2023/09/16 07:04:31;;;;;;;0.00;0.00;;;24.10;88.30;;;;;;4949067;29;20035;-81
2023/09/16 07:06:57;;;;;;;0.00;0.00;;;25.70;84.80;;;;;;4949909;28;20035;-84
2023/09/16 07:09:23;;;;;;;0.00;0.00;;;26.60;81.10;;;;;;4949079;29;20098;-85
2023/09/16 07:11:48;;;;;;;0.00;0.00;;;26.60;80.80;;;;;;4949650;28;20289;-83
2023/09/16 07:14:14;;;;;;;0.00;0.00;;;27.20;79.00;;;;;;4964908;28;20054;-81
2023/09/16 07:16:40;;;;;;;0.00;0.00;;;27.00;77.30;;;;;;4948644;28;20034;-79
2023/09/16 07:19:07;;;;;;;0.00;0.00;;;27.30;76.80;;;;;;4964860;28;20130;-80
2023/09/16 07:21:32;;;;;;;0.00;0.00;;;27.30;76.70;;;;;;4964363;28;20075;-80
2023/09/16 07:24:01;;;;;;;0.00;0.00;;;26.70;76.80;;;;;;4965066;28;20507;-81
2023/09/16 07:26:30;;;;;;;0.00;0.00;;;26.80;76.50;;;;;;4949820;29;20533;-81
2023/09/16 07:28:57;;;;;;;0.00;0.00;;;26.40;76.70;;;;;;4949783;28;20118;-79
2023/09/16 07:31:23;;;;;;;0.00;0.00;;;26.60;77.50;;;;;;4950102;29;20113;-79
2023/09/16 07:33:48;;;;;;;0.75;0.75;;;25.20;80.00;;;;;;4951621;29;20043;-80
2023/09/16 07:36:14;;;;;;;0.00;0.00;;;25.80;78.30;;;;;;4950972;28;20569;-80
2023/09/16 07:38:40;;;;;;;0.00;0.00;;;26.40;77.00;;;;;;4966220;28;20035;-82
2023/09/16 07:41:06;;;;;;;0.00;0.00;;;27.60;74.40;;;;;;4950839;28;20082;-82
2023/09/16 07:43:32;;;;;;;0.00;0.00;;;28.30;72.30;;;;;;4952739;28;20041;-81
2023/09/16 07:45:59;;;;;;;0.00;0.00;;;28.30;71.50;;;;;;4950249;28;20035;-81
2023/09/16 07:48:24;;;;;;;0.00;0.00;;;28.40;71.00;;;;;;4951926;29;20038;-81
2023/09/16 07:50:50;;;;;;;0.00;0.00;;;28.90;70.90;;;;;;4965096;28;20035;-81
2023/09/16 07:53:16;;;;;;;0.00;0.00;;;29.30;68.50;;;;;;4950099;28;20787;-80
2023/09/16 07:55:42;;;;;;;0.00;0.00;;;29.20;67.90;;;;;;4946874;29;20082;-87
2023/09/16 07:58:07;;;;;;;0.00;0.00;;;29.90;66.60;;;;;;4946524;28;20790;-82
2023/09/16 08:00:34;;;;;;;0.00;0.00;;;29.10;67.20;;;;;;4948354;28;20031;-81
2023/09/16 08:02:59;;;;;;;0.00;0.00;;;29.50;66.40;;;;;;4946591;28;20050;-80
2023/09/16 08:05:26;;;;;;;0.00;0.00;;;29.80;65.40;;;;;;4949904;28;20518;-80
2023/09/16 08:07:52;;;;;;;0.00;0.00;;;30.20;65.70;;;;;;4949518;28;20032;-82
2023/09/16 08:10:18;;;;;;;0.10;0.10;;;30.00;64.40;;;;;;4942100;28;20031;-83
2023/09/16 08:12:44;;;;;;;0.00;0.00;;;30.80;64.60;;;;;;4944779;28;20866;-81
2023/09/16 08:15:09;;;;;;;;;;;30.60;63.30;;;;;;4948446;28;20036;-83
2023/09/16 08:17:37;;;;;;;0.00;0.00;;;31.00;61.70;;;;;;4938420;29;20065;-83
2023/09/16 08:20:07;;;;;;;0.00;0.00;;;31.20;61.90;;;;;;4964580;28;20059;-84
2023/09/16 08:22:33;;;;;;;0.00;0.00;;;31.70;62.40;;;;;;4948060;28;20615;-83
2023/09/16 08:24:58;;;;;;;;;;;32.00;61.50;;;;;;4963335;28;20031;-82
2023/09/16 08:27:25;;;;;;;0.00;0.00;;;30.90;60.90;;;;;;4944204;28;19910;-79
2023/09/16 08:29:52;;;;;;;0.00;0.00;;;31.30;61.30;;;;;;4945120;28;20023;-79
2023/09/16 08:32:21;;;;;;;0.00;0.00;;;31.90;59.80;;;;;;4943300;28;20159;-79
2023/09/16 08:34:46;;;;;;;0.22;0.22;;;31.60;60.00;;;;;;4947102;29;20082;-79
2023/09/16 08:37:12;;;;;;;;;;;32.20;58.30;;;;;;4950971;29;20141;-80
2023/09/16 08:39:37;;;;;;;;;;;31.40;59.60;;;;;;4946481;28;19911;-82
2023/09/16 08:42:25;;;;;;;;;;;31.80;59.30;;;;;;4941483;28;22732;-81
2023/09/16 08:44:53;;;;;;;0.00;0.00;;;31.80;59.30;;;;;;4941367;28;20084;-82
2023/09/16 08:47:31;;;;;;;0.00;0.00;;;32.30;58.80;;;;;;4945124;29;20023;-80
2023/09/16 08:50:07;;;;;;;0.00;0.00;;;31.70;58.80;;;;;;4943168;28;20028;-81
2023/09/16 08:52:46;;;;;;;0.00;0.00;;;32.10;58.60;;;;;;4960644;28;20081;-83
2023/09/16 08:55:13;;;;;;;0.00;0.00;;;31.20;59.50;;;;;;4942359;28;20081;-82
2023/09/16 08:57:45;;;;;;;0.00;0.00;;;32.00;58.70;;;;;;4945010;28;20019;-85
2023/09/16 09:00:11;;;;;;;0.00;0.00;;;32.40;57.70;;;;;;4945703;28;20039;-83
2023/09/16 09:02:39;;;;;;;0.00;0.00;;;32.30;57.50;;;;;;4946098;28;20034;-82
2023/09/16 09:05:07;;;;;;;0.00;0.00;;;32.60;56.30;;;;;;4945328;28;20070;-79
2023/09/16 09:07:39;;;;;;;0.00;0.00;;;32.40;57.00;;;;;;4937861;28;20024;-82
2023/09/16 09:10:06;;;;;;;0.00;0.00;;;32.80;56.70;;;;;;4949639;28;20077;-83
2023/09/16 09:12:35;;;;;;;0.00;0.00;;;33.20;54.30;;;;;;4949209;28;20586;-81
2023/09/16 09:15:06;;;;;;;0.00;0.00;;;32.90;53.80;;;;;;4947596;28;20576;-82
2023/09/16 09:17:37;;;;;;;0.00;0.00;;;32.40;55.00;;;;;;4948481;28;20075;-82
2023/09/16 09:20:06;;;;;;;0.00;0.00;;;31.10;55.90;;;;;;4962370;28;20618;-82
2023/09/16 09:22:34;;;;;;;0.00;0.00;;;30.40;57.90;;;;;;4945749;29;20038;-82
2023/09/16 09:25:00;;;;;;;0.00;0.00;;;31.80;56.60;;;;;;4964474;28;20745;-82
2023/09/16 09:27:26;;;;;;;0.00;0.00;;;31.80;55.00;;;;;;4947236;28;20030;-81
2023/09/16 09:29:52;;;;;;;0.00;0.00;;;30.50;57.30;;;;;;4955237;28;20415;-82
2023/09/16 09:32:18;;;;;;;0.00;0.00;;;30.70;58.50;;;;;;4958712;28;20031;-81
2023/09/16 09:34:44;;;;;;;0.00;0.00;;;32.50;55.30;;;;;;4945730;29;20040;-82
2023/09/16 09:37:16;;;;;;;0.00;0.00;;;30.60;57.10;;;;;;4945016;29;20431;-82
2023/09/16 09:39:43;;;;;;;0.00;0.00;;;29.80;59.90;;;;;;4935436;28;20474;-82
2023/09/16 09:42:08;;;;;;;0.00;0.00;;;31.80;58.00;;;;;;4956157;28;20028;-82
2023/09/16 09:44:34;;;;;;;0.00;0.00;;;33.20;54.70;;;;;;4944589;29;20495;-81
2023/09/16 09:47:00;;;;;;;0.00;0.00;;;34.50;53.40;;;;;;4959204;28;20028;-82
2023/09/16 09:49:27;;;;;;;0.00;0.00;;;33.60;52.10;;;;;;4945258;29;20541;-82
2023/09/16 09:51:52;;;;;;;0.00;0.00;;;33.40;52.50;;;;;;4947685;29;20039;-83
2023/09/16 09:54:18;;;;;;;0.00;0.00;;;33.80;51.90;;;;;;4943467;29;20158;-83
2023/09/16 09:56:45;;;;;;;0.00;0.00;;;33.30;50.80;;;;;;4938792;29;20028;-83
2023/09/16 09:59:12;;;;;;;0.00;0.00;;;32.20;52.00;;;;;;4946052;28;20028;-82
2023/09/16 10:01:40;;;;;;;0.00;0.00;;;31.40;53.40;;;;;;4948164;29;20035;-83
2023/09/16 10:04:05;;;;;;;0.00;0.00;;;30.60;55.80;;;;;;4940758;28;20035;-82
2023/09/16 10:06:32;;;;;;;0.00;0.00;;;30.60;55.40;;;;;;4938871;28;20030;-83
2023/09/16 10:08:57;;;;;;;0.00;0.00;;;29.70;56.50;;;;;;4958654;28;20034;-82
2023/09/16 10:11:28;;;;;;;0.00;0.00;;;30.30;56.90;;;;;;4938199;29;20027;-82
2023/09/16 10:13:54;;;;;;;0.00;0.00;;;30.40;57.20;;;;;;4936650;28;20043;-83
2023/09/16 10:16:20;;;;;;;0.00;0.00;;;30.10;57.00;;;;;;4939978;28;20028;-82
2023/09/16 10:18:46;;;;;;;0.00;0.00;;;29.80;57.00;;;;;;4937297;29;20104;-84
2023/09/16 10:21:14;;;;;;;0.00;0.00;;;29.10;58.70;;;;;;4933900;29;20415;-84
2023/09/16 10:23:41;;;;;;;0.00;0.00;;;28.60;59.20;;;;;;4943641;28;20039;-82
2023/09/16 10:26:10;;;;;;;0.00;0.00;;;28.70;59.60;;;;;;4946569;28;20032;-85
2023/09/16 10:28:43;;;;;;;0.00;0.00;;;29.00;58.50;;;;;;4955464;28;20122;-83
2023/09/16 10:31:10;;;;;;;0.00;0.00;;;28.70;61.40;;;;;;4951616;28;20063;-83
2023/09/16 10:33:36;;;;;;;0.00;0.00;;;29.20;60.50;;;;;;4945047;29;20035;-84
2023/09/16 10:36:04;;;;;;;0.00;0.00;;;29.40;61.10;;;;;;4954931;28;20448;-83
2023/09/16 10:38:33;;;;;;;0.00;0.00;;;29.20;60.50;;;;;;4966787;28;20114;-83
2023/09/16 10:40:59;;;;;;;0.03;0.03;;;29.40;60.50;;;;;;4946359;29;20036;-82
2023/09/16 10:43:25;;;;;;;0.00;0.00;;;29.60;62.80;;;;;;4946465;29;20443;-82
2023/09/16 10:45:52;;;;;;;0.00;0.00;;;29.30;60.30;;;;;;4939550;28;20044;-82
2023/09/16 10:48:17;;;;;;;0.00;0.00;;;29.30;60.90;;;;;;4947468;29;20027;-83
2023/09/16 10:50:47;;;;;;;0.00;0.00;;;29.10;60.80;;;;;;4948687;29;20043;-83
2023/09/16 10:53:26;;;;;;;0.00;0.00;;;29.20;62.30;;;;;;4951744;28;20046;-83
2023/09/16 10:56:17;;;;;;;0.00;0.00;;;28.90;60.00;;;;;;4949850;29;20114;-82
2023/09/16 10:58:50;;;;;;;0.00;0.00;;;28.40;61.50;;;;;;4950531;28;20130;-81
2023/09/16 11:01:39;;;;;;;0.00;0.00;;;28.70;62.00;;;;;;4952076;29;20847;-82
2023/09/16 11:04:14;;;;;;;0.00;0.00;;;29.30;60.50;;;;;;4949898;29;20031;-83
2023/09/16 11:06:41;;;;;;;0.00;0.00;;;29.20;61.50;;;;;;4947383;28;20039;-83
2023/09/16 11:09:07;;;;;;;0.00;0.00;;;29.00;64.80;;;;;;4945905;28;20023;-83
2023/09/16 11:11:34;;;;;;;0.00;0.00;;;28.80;62.90;;;;;;4948175;28;20035;-83
2023/09/16 11:14:01;;;;;;;0.00;0.00;;;28.40;63.80;;;;;;4950543;29;20059;-85
2023/09/16 11:16:27;;;;;;;0.00;0.00;;;28.40;64.40;;;;;;4949303;28;20030;-87
2023/09/16 11:18:52;;;;;;;0.00;0.00;;;28.60;63.30;;;;;;4949962;29;20019;-83
2023/09/16 11:21:20;;;;;;;0.00;0.00;;;28.40;62.60;;;;;;4950161;28;20131;-84
2023/09/16 11:23:48;;;;;;;0.00;0.00;;;28.60;62.00;;;;;;4959465;28;20035;-85
2023/09/16 11:26:22;;;;;;;0.00;0.00;;;28.60;64.60;;;;;;4959763;28;20064;-85
2023/09/16 11:28:51;;;;;;;0.00;0.00;;;28.10;63.20;;;;;;4968647;28;20564;-85
2023/09/16 11:31:17;;;;;;;0.00;0.00;;;28.10;64.90;;;;;;4945030;29;20031;-88
2023/09/16 11:33:42;;;;;;;0.00;0.00;;;27.70;65.10;;;;;;4951344;29;20035;-87
2023/09/16 11:36:15;;;;;;;0.00;0.00;;;28.00;64.80;;;;;;4948145;28;20326;-87
2023/09/16 11:39:06;;;;;;;0.00;0.00;;;27.90;65.50;;;;;;4952931;29;20035;-85
2023/09/16 11:41:31;;;;;;;0.00;0.00;;;28.10;64.30;;;;;;4951689;29;20652;-87
2023/09/16 11:43:57;;;;;;;0.00;0.00;;;28.00;64.70;;;;;;4950528;29;20081;-85
2023/09/16 11:46:25;;;;;;;0.00;0.00;;;28.00;65.30;;;;;;4942309;28;20489;-85
2023/09/16 11:49:00;;;;;;;0.00;0.00;;;27.90;65.20;;;;;;4950440;29;20039;-88
2023/09/16 11:51:26;;;;;;;0.00;0.00;;;28.10;64.80;;;;;;4959295;28;20039;-88
2023/09/16 11:53:53;;;;;;;;;;;28.50;64.00;;;;;;4966368;28;20033;-88
2023/09/16 11:56:23;;;;;;;0.00;0.00;;;28.50;65.10;;;;;;4947135;29;19974;-86
2023/09/16 11:58:49;;;;;;;0.00;0.00;;;28.40;64.30;;;;;;4950130;29;20063;-87
2023/09/16 12:01:22;;;;;;;;;;;28.30;65.70;;;;;;4949459;29;20104;-87
2023/09/16 12:03:49;;;;;;;0.00;0.00;;;28.40;67.00;;;;;;4949264;28;20113;-93
2023/09/16 12:06:17;;;;;;;0.00;0.00;;;28.20;64.60;;;;;;4949022;29;20513;-90
2023/09/16 12:08:45;;;;;;;0.00;0.00;;;28.00;62.90;;;;;;4946551;28;20031;-87
2023/09/16 12:11:11;;;;;;;0.00;0.00;;;28.10;64.20;;;;;;4948932;29;20038;-89
2023/09/16 12:13:39;;;;;;;0.00;0.00;;;28.30;63.60;;;;;;4947201;29;20059;-89
2023/09/16 12:16:05;;;;;;;0.00;0.00;;;28.00;62.60;;;;;;4950243;28;20049;-88
2023/09/16 12:18:31;;;;;;;0.00;0.00;;;28.10;63.90;;;;;;4964314;28;20027;-88
2023/09/16 12:20:57;;;;;;;0.00;0.00;;;28.10;63.20;;;;;;4950402;29;20043;-87
2023/09/16 12:23:26;;;;;;;0.00;0.00;;;28.00;62.90;;;;;;4949556;28;20049;-89
2023/09/16 12:25:51;;;;;;;0.00;0.00;;;27.90;61.60;;;;;;4948483;28;20168;-88
2023/09/16 12:28:22;;;;;;;0.00;0.00;;;28.00;63.20;;;;;;4969308;28;20046;-88
2023/09/16 12:30:51;;;;;;;0.00;0.00;;;28.10;63.30;;;;;;4949103;29;20035;-90
2023/09/16 12:33:19;;;;;;;0.00;0.00;;;28.00;63.00;;;;;;4949397;29;20077;-88
2023/09/16 12:35:46;;;;;;;0.00;0.00;;;28.00;61.50;;;;;;4945553;28;20027;-90
2023/09/16 12:38:12;;;;;;;0.00;0.00;;;28.00;61.40;;;;;;4947899;29;20055;-87
2023/09/16 12:40:38;;;;;;;0.00;0.00;;;28.00;61.10;;;;;;4944640;29;20486;-88
2023/09/16 12:43:05;;;;;;;0.00;0.00;;;27.90;63.20;;;;;;4950508;28;20105;-88
2023/09/16 12:45:33;;;;;;;0.00;0.00;;;27.80;62.40;;;;;;4951570;28;20110;-87
2023/09/16 12:47:59;;;;;;;0.00;0.00;;;27.60;62.20;;;;;;4947289;28;20708;-89
2023/09/16 12:50:26;;;;;;;0.00;0.00;;;27.80;63.70;;;;;;4945404;29;20566;-89